Time;durP1;ratioP1;P1;durP2;ratioP2;P2;SDS_P1;SDS_P2;PMS_P1;PMS_P2;Temp;Humidity;BMP_temperature;BMP_pressure;BME280_temperature;BME280_humidity;BME280_pressure;Samples;Min_cycle;Max_cycle;Signal;HPM_P1;HPM_P2
2022/12/30 00:01:45;;;;;;;;;;;;;;;10.80;66.76;99663.38;5077772;28;19924;-52
2022/12/30 00:04:10;;;;;;;;;;;;;;;10.82;66.59;99672.09;5105373;28;19920;-54
2022/12/30 00:06:36;;;;;;;;;;;;;;;10.79;66.66;99671.31;5113287;28;19919;-56
2022/12/30 00:09:01;;;;;;;;;;;;;;;10.84;66.70;99666.75;5114495;28;19920;-56
2022/12/30 00:11:26;;;;;;;;;;;;;;;10.91;66.42;99664.78;5099897;28;19927;-55
2022/12/30 00:33:08;;;;;;;;;;;;;;;11.18;66.07;99676.13;5093620;28;20012;-52
2022/12/30 00:35:34;;;;;;;;;;;;;;;11.29;65.54;99687.09;5079887;28;19923;-52
2022/12/30 00:37:59;;;;;;;;;;;;;;;11.34;65.60;99687.81;5072184;28;19927;-54
2022/12/30 00:40:25;;;;;;;;;;;;;;;11.46;65.37;99700.53;5090043;28;19924;-53
2022/12/30 00:43:08;;;;;;;;;;;;;;;11.52;65.08;99700.28;5086040;28;19928;-52
2022/12/30 00:45:34;;;;;;;;;;;;;;;11.56;64.80;99695.78;5087176;28;19924;-51
2022/12/30 00:48:00;;;;;;;;;;;;;;;11.56;64.78;99691.38;5091133;28;19969;-54
2022/12/30 00:56:12;;;;;;;;;;;;;;;11.42;64.84;99698.91;5093416;28;19968;-54
2022/12/30 00:58:37;;;;;;;;;;;;;;;11.38;64.95;99697.31;5074200;28;19974;-54
2022/12/30 01:01:03;;;;;;;;;;;;;;;11.40;65.04;99700.72;5073371;28;19948;-51
2022/12/30 01:03:28;;;;;;;;;;;;;;;11.43;65.08;99687.47;5071822;28;19916;-54
2022/12/30 01:05:54;;;;;;;;;;;;;;;11.47;64.89;99696.13;5084300;28;19920;-55
2022/12/30 01:08:19;;;;;;;;;;;;;;;11.54;64.73;99705.50;5089658;28;20006;-54
2022/12/30 01:10:45;;;;;;;;;;;;;;;11.58;64.61;99705.34;5104028;28;20311;-53
2022/12/30 01:13:10;;;;;;;;;;;;;;;11.63;64.34;99706.94;5085583;28;19983;-52
2022/12/30 01:15:35;;;;;;;;;;;;;;;11.64;64.30;99706.03;5105197;28;19946;-51
2022/12/30 01:18:01;;;;;;;;;;;;;;;11.60;64.14;99700.88;5078680;28;19924;-54
2022/12/30 01:20:27;;;;;;;;;;;;;;;11.67;64.12;99703.28;5091727;28;19977;-55
2022/12/30 01:22:52;;;;;;;;;;;;;;;11.72;64.06;99701.34;5099644;28;20383;-55
2022/12/30 01:25:18;;;;;;;;;;;;;;;11.72;63.89;99703.97;5078401;28;19924;-53
2022/12/30 01:27:43;;;;;;;;;;;;;;;11.77;63.76;99699.41;5073915;28;19928;-54
2022/12/30 01:30:09;;;;;;;;;;;;;;;11.75;63.65;99704.72;5090332;28;19924;-58
2022/12/30 01:32:36;;;;;;;;;;;;;;;11.73;63.58;99706.56;5085262;28;20317;-53
2022/12/30 01:35:02;;;;;;;;;;;;;;;11.79;63.55;99705.47;5072932;28;19966;-54
2022/12/30 01:37:27;;;;;;;;;;;;;;;11.79;63.41;99703.69;5090162;28;19932;-53
2022/12/30 01:39:52;;;;;;;;;;;;;;;11.80;63.44;99694.00;5090139;28;19933;-56
2022/12/30 01:42:19;;;;;;;;;;;;;;;11.82;63.41;99703.56;5093458;28;20355;-55
2022/12/30 01:44:52;;;;;;;;;;;;;;;11.86;63.41;99693.84;5092875;28;19925;-56
2022/12/30 01:47:27;;;;;;;;;;;;;;;11.82;63.32;99698.31;5078818;28;19966;-54
2022/12/30 01:49:56;;;;;;;;;;;;;;;11.84;63.28;99699.13;5076571;28;19986;-55
2022/12/30 01:52:23;;;;;;;;;;;;;;;11.83;63.27;99701.84;5092886;28;20291;-55
2022/12/30 01:54:49;;;;;;;;;;;;;;;11.76;63.33;99700.31;5096227;28;19925;-55
2022/12/30 01:57:16;;;;;;;;;;;;;;;11.81;63.33;99704.50;5094795;28;19924;-56
2022/12/30 01:59:42;;;;;;;;;;;;;;;11.79;63.36;99703.69;5089424;28;19974;-56
2022/12/30 02:02:07;;;;;;;;;;;;;;;11.78;63.47;99701.13;5077377;28;20015;-54
2022/12/30 02:04:33;;;;;;;;;;;;;;;11.78;63.38;99698.50;5076296;28;19966;-56
2022/12/30 02:06:58;;;;;;;;;;;;;;;11.79;63.46;99701.06;5091131;28;19920;-55
2022/12/30 02:09:27;;;;;;;;;;;;;;;11.72;63.53;99696.06;5093284;28;19920;-55
2022/12/30 02:11:53;;;;;;;;;;;;;;;11.75;63.61;99698.59;5093638;28;19932;-54
2022/12/30 02:14:19;;;;;;;;;;;;;;;11.75;63.58;99704.72;5089829;28;19916;-55
2022/12/30 02:16:59;;;;;;;;;;;;;;;11.77;63.65;99702.03;5088463;28;20403;-53
2022/12/30 02:19:43;;;;;;;;;;;;;;;11.75;63.57;99699.44;5082333;28;20367;-55
2022/12/30 02:22:21;;;;;;;;;;;;;;;11.79;63.53;99693.16;5079469;28;19921;-54
2022/12/30 02:24:52;;;;;;;;;;;;;;;11.80;63.48;99699.28;5080355;28;19927;-55
2022/12/30 02:27:17;;;;;;;;;;;;;;;11.81;63.44;99693.97;5097570;28;19938;-52
2022/12/30 02:30:01;;;;;;;;;;;;;;;11.80;63.47;99701.91;5099064;28;20298;-52
2022/12/30 02:32:45;;;;;;;;;;;;;;;11.73;63.66;99695.16;5081715;28;19928;-54
2022/12/30 02:35:19;;;;;;;;;;;;;;;11.72;63.74;99693.44;5077109;28;19939;-57
2022/12/30 02:38:03;;;;;;;;;;;;;;;11.71;63.64;99691.72;5089982;28;19970;-52
2022/12/30 02:46:19;;;;;;;;;;;;;;;11.64;64.02;99706.03;5089688;28;19923;-54
2022/12/30 02:48:47;;;;;;;;;;;;;;;11.63;63.88;99697.28;5081897;28;19920;-52
2022/12/30 02:53:58;;;;;;;;;;;;;;;11.68;63.80;99697.09;5079807;28;19932;-54
2022/12/30 02:56:23;;;;;;;;;;;;;;;11.67;63.73;99687.50;5076037;28;19920;-54
2022/12/30 03:03:56;;;;;;;;;;;;;;;11.72;63.59;99686.41;5093903;28;20392;-55
2022/12/30 03:04:55;;;;;;;;;;;;;;;11.75;63.38;99690.69;5093859;28;19927;-54
2022/12/30 03:07:43;;;;;;;;;;;;;;;11.81;63.33;99701.03;5094430;28;19955;-54
2022/12/30 03:13:29;;;;;;;;;;;;;;;11.84;63.05;99704.41;5077374;28;19973;-53
2022/12/30 03:16:00;;;;;;;;;;;;;;;11.87;62.91;99703.44;5084650;28;19924;-55
2022/12/30 03:18:26;;;;;;;;;;;;;;;11.81;63.03;99704.50;5094045;28;19920;-54
2022/12/30 03:20:53;;;;;;;;;;;;;;;11.86;62.71;99695.59;5075080;28;19920;-55
2022/12/30 03:28:48;;;;;;;;;;;;;;;11.70;62.82;99692.66;5074974;28;19978;-55
2022/12/30 03:31:15;;;;;;;;;;;;;;;11.82;62.65;99693.06;5082173;28;20011;-55
2022/12/30 03:33:40;;;;;;;;;;;;;;;11.83;62.37;99699.19;5089662;28;20019;-55
2022/12/30 03:36:08;;;;;;;;;;;;;;;11.84;62.31;99701.75;5084500;28;20015;-55
2022/12/30 03:38:37;;;;;;;;;;;;;;;11.61;62.76;99717.53;5078040;28;19920;-55
2022/12/30 03:41:04;;;;;;;;;;;;;;;11.74;62.84;99737.22;5086003;28;20398;-56
2022/12/30 03:43:30;;;;;;;;;;;;;;;11.90;62.96;99758.59;5082327;28;20395;-56
2022/12/30 03:45:55;;;;;;;;;;;;;;;11.60;65.09;99776.31;5075468;28;19921;-55
2022/12/30 03:48:20;;;;;;;;;;;;;;;11.39;67.95;99777.06;5076425;28;19924;-55
2022/12/30 03:50:46;;;;;;;;;;;;;;;11.14;67.75;99758.66;5079214;28;19946;-56
2022/12/30 03:53:11;;;;;;;;;;;;;;;10.96;67.53;99758.34;5091780;28;19924;-55
2022/12/30 03:55:36;;;;;;;;;;;;;;;10.55;67.41;99768.41;5089994;28;19931;-55
2022/12/30 03:58:02;;;;;;;;;;;;;;;10.66;67.49;99759.34;5075147;28;20383;-55
2022/12/30 04:00:27;;;;;;;;;;;;;;;10.65;66.62;99757.59;5076252;28;20395;-55
2022/12/30 04:02:52;;;;;;;;;;;;;;;10.63;66.35;99754.19;5086688;28;19947;-56
2022/12/30 04:05:18;;;;;;;;;;;;;;;10.68;66.43;99758.38;5085010;28;20283;-57
2022/12/30 04:07:43;;;;;;;;;;;;;;;10.66;66.31;99762.84;5083428;28;19931;-54
2022/12/30 04:10:08;;;;;;;;;;;;;;;10.52;66.05;99755.38;5082914;28;20024;-55
2022/12/30 04:12:34;;;;;;;;;;;;;;;10.68;66.05;99757.53;5085379;28;20004;-56
2022/12/30 04:14:59;;;;;;;;;;;;;;;10.57;65.99;99760.47;5075336;28;19928;-55
2022/12/30 04:17:24;;;;;;;;;;;;;;;10.56;65.90;99766.66;5074046;28;19968;-55
2022/12/30 04:19:50;;;;;;;;;;;;;;;10.49;65.49;99763.38;5082207;28;20588;-55
2022/12/30 04:22:15;;;;;;;;;;;;;;;10.55;65.40;99771.03;5092532;28;19924;-53
2022/12/30 04:24:40;;;;;;;;;;;;;;;10.65;65.17;99771.59;5073128;28;19927;-52
2022/12/30 04:27:06;;;;;;;;;;;;;;;10.89;65.02;99764.72;5085988;28;20391;-54
2022/12/30 04:29:31;;;;;;;;;;;;;;;10.70;65.25;99760.97;5076535;28;20394;-54
2022/12/30 04:31:56;;;;;;;;;;;;;;;10.79;65.07;99760.66;5087795;28;20431;-51
2022/12/30 04:34:22;;;;;;;;;;;;;;;10.82;64.83;99761.44;5075849;28;20423;-51
2022/12/30 04:36:47;;;;;;;;;;;;;;;10.93;64.83;99765.47;5081035;28;20439;-50
2022/12/30 04:39:12;;;;;;;;;;;;;;;10.91;64.71;99769.94;5083615;28;19927;-53
2022/12/30 04:41:37;;;;;;;;;;;;;;;10.79;64.77;99779.91;5094105;28;20010;-53
2022/12/30 04:44:04;;;;;;;;;;;;;;;10.72;65.12;99781.00;5080710;28;19920;-54
2022/12/30 04:46:30;;;;;;;;;;;;;;;10.83;64.71;99778.06;5079838;28;19924;-55
2022/12/30 04:48:55;;;;;;;;;;;;;;;10.90;64.75;99774.31;5080192;28;19917;-56
2022/12/30 04:51:21;;;;;;;;;;;;;;;10.91;64.71;99776.03;5086486;28;19924;-51
2022/12/30 04:53:46;;;;;;;;;;;;;;;10.82;64.96;99782.47;5089014;28;20440;-53
2022/12/30 04:56:12;;;;;;;;;;;;;;;10.50;65.72;99791.34;5089489;28;20554;-53
2022/12/30 04:58:37;;;;;;;;;;;;;;;10.61;65.60;99791.00;5086375;28;19929;-55
2022/12/30 05:01:02;;;;;;;;;;;;;;;10.57;65.68;99792.88;5075848;28;20363;-53
2022/12/30 05:03:28;;;;;;;;;;;;;;;10.60;65.88;99798.03;5081232;28;19930;-55
2022/12/30 05:05:53;;;;;;;;;;;;;;;10.55;65.62;99805.19;5091585;28;20049;-51
2022/12/30 05:08:18;;;;;;;;;;;;;;;10.40;65.98;99805.66;5083472;28;19925;-55
2022/12/30 05:10:43;;;;;;;;;;;;;;;10.45;65.93;99795.00;5092782;28;20378;-54
2022/12/30 05:13:09;;;;;;;;;;;;;;;10.45;66.18;99795.91;5077243;28;19920;-54
2022/12/30 05:15:34;;;;;;;;;;;;;;;10.45;65.99;99816.91;5092284;28;19924;-54
2022/12/30 05:17:59;;;;;;;;;;;;;;;10.51;66.26;99828.97;5090139;28;19932;-55
2022/12/30 05:20:25;;;;;;;;;;;;;;;10.43;66.67;99833.59;5082256;28;19955;-55
2022/12/30 05:22:51;;;;;;;;;;;;;;;10.26;66.82;99826.22;5093476;28;19920;-54
2022/12/30 05:28:00;;;;;;;;;;;;;;;10.41;66.54;99833.63;5091559;28;19997;-54
2022/12/30 05:30:25;;;;;;;;;;;;;;;10.63;66.45;99835.63;5091726;28;20310;-55
2022/12/30 05:32:51;;;;;;;;;;;;;;;10.44;66.86;99837.94;5079759;28;19924;-54
2022/12/30 05:35:16;;;;;;;;;;;;;;;10.55;66.86;99851.63;5091563;28;19924;-53
2022/12/30 05:37:41;;;;;;;;;;;;;;;10.27;69.48;99854.19;5082076;28;19929;-55
2022/12/30 05:40:07;;;;;;;;;;;;;;;9.60;69.29;99855.09;5087152;28;20012;-54
2022/12/30 05:42:32;;;;;;;;;;;;;;;9.94;69.95;99843.72;5089988;28;19924;-54
2022/12/30 05:44:58;;;;;;;;;;;;;;;10.01;70.67;99847.00;5079955;28;20030;-54
2022/12/30 05:47:23;;;;;;;;;;;;;;;10.08;70.95;99849.44;5079514;28;19950;-55
2022/12/30 05:49:48;;;;;;;;;;;;;;;9.92;70.92;99850.75;5093034;28;19972;-53
2022/12/30 05:52:14;;;;;;;;;;;;;;;9.87;71.15;99856.13;5085408;28;19969;-54
2022/12/30 05:54:40;;;;;;;;;;;;;;;10.01;71.16;99858.38;5087761;28;19924;-53
2022/12/30 05:57:05;;;;;;;;;;;;;;;9.92;70.75;99868.28;5079487;28;20394;-54
2022/12/30 05:59:30;;;;;;;;;;;;;;;9.99;70.67;99875.06;5080695;28;19977;-51
2022/12/30 06:01:56;;;;;;;;;;;;;;;10.04;70.35;99870.56;5090773;28;19931;-54
2022/12/30 06:04:21;;;;;;;;;;;;;;;10.09;70.25;99880.03;5083214;28;19924;-55
2022/12/30 06:06:46;;;;;;;;;;;;;;;10.07;70.16;99887.09;5078065;28;19931;-54
2022/12/30 06:09:12;;;;;;;;;;;;;;;10.11;69.86;99883.47;5078854;28;19928;-53
2022/12/30 06:11:37;;;;;;;;;;;;;;;10.26;69.23;99886.63;5084579;28;19967;-55
2022/12/30 06:14:02;;;;;;;;;;;;;;;9.88;68.88;99893.72;5085675;28;19930;-53
2022/12/30 06:16:27;;;;;;;;;;;;;;;9.78;68.89;99894.88;5086290;28;19927;-50
2022/12/30 06:18:53;;;;;;;;;;;;;;;10.10;67.96;99896.66;5079345;28;20027;-51
2022/12/30 06:21:18;;;;;;;;;;;;;;;10.06;67.88;99901.13;5089545;28;19924;-51
2022/12/30 06:23:43;;;;;;;;;;;;;;;10.00;67.80;99895.16;5083701;28;20013;-53
2022/12/30 06:26:09;;;;;;;;;;;;;;;10.14;66.89;99905.31;5084139;28;19928;-52
2022/12/30 06:28:34;;;;;;;;;;;;;;;10.07;67.65;99904.59;5078018;28;19921;-52
2022/12/30 06:30:59;;;;;;;;;;;;;;;10.04;67.22;99902.06;5081985;28;20432;-50
2022/12/30 06:33:25;;;;;;;;;;;;;;;10.20;66.68;99899.88;5079449;28;19924;-51
2022/12/30 06:35:50;;;;;;;;;;;;;;;10.14;66.43;99898.28;5078417;28;20416;-54
2022/12/30 06:38:15;;;;;;;;;;;;;;;10.13;66.00;99912.28;5079109;28;19924;-52
2022/12/30 06:40:41;;;;;;;;;;;;;;;9.96;66.24;99914.53;5084518;28;19924;-55
2022/12/30 06:43:06;;;;;;;;;;;;;;;9.95;66.18;99918.91;5093986;28;20038;-51
2022/12/30 06:45:31;;;;;;;;;;;;;;;9.88;66.29;99927.84;5088850;28;19942;-55
2022/12/30 06:47:56;;;;;;;;;;;;;;;9.77;66.59;99940.38;5088124;28;19965;-54
2022/12/30 06:50:22;;;;;;;;;;;;;;;9.64;67.05;99939.81;5090845;28;19920;-51
2022/12/30 06:52:47;;;;;;;;;;;;;;;9.66;67.15;99937.19;5092724;28;19924;-54
2022/12/30 06:55:13;;;;;;;;;;;;;;;9.57;67.15;99939.09;5081523;28;20034;-54
2022/12/30 06:57:38;;;;;;;;;;;;;;;9.54;66.94;99936.56;5082491;28;19935;-51
2022/12/30 07:00:05;;;;;;;;;;;;;;;9.48;66.81;99943.72;5094191;28;20350;-54
2022/12/30 07:02:31;;;;;;;;;;;;;;;9.42;66.92;99954.38;5100541;28;19919;-52
2022/12/30 07:04:56;;;;;;;;;;;;;;;9.26;66.94;99964.34;5115785;28;19968;-53
2022/12/30 07:07:21;;;;;;;;;;;;;;;9.22;67.30;99978.44;5105795;28;19935;-54
2022/12/30 07:09:47;;;;;;;;;;;;;;;9.32;66.80;99985.16;5093298;28;19932;-52
2022/12/30 07:12:12;;;;;;;;;;;;;;;9.28;66.89;99979.13;5088550;28;19931;-55
2022/12/30 07:14:38;;;;;;;;;;;;;;;9.24;66.81;99982.72;5078854;28;19920;-55
2022/12/30 07:17:03;;;;;;;;;;;;;;;9.18;66.95;99987.25;5084724;28;19925;-56
2022/12/30 07:19:28;;;;;;;;;;;;;;;8.71;68.46;99981.25;5082827;28;19928;-55
2022/12/30 07:21:54;;;;;;;;;;;;;;;8.99;67.44;99990.25;5084970;28;19925;-55
2022/12/30 07:24:20;;;;;;;;;;;;;;;9.02;67.31;99991.97;5079532;28;19920;-56
2022/12/30 07:26:46;;;;;;;;;;;;;;;8.91;67.42;99984.31;5085622;28;20118;-58
2022/12/30 07:29:12;;;;;;;;;;;;;;;8.93;67.71;99993.00;5093862;28;20015;-57
2022/12/30 07:31:38;;;;;;;;;;;;;;;8.78;67.68;99994.19;5093249;28;19920;-54
2022/12/30 07:34:03;;;;;;;;;;;;;;;8.84;67.66;100003.69;5093505;28;19931;-56
2022/12/30 07:36:28;;;;;;;;;;;;;;;8.73;67.69;100008.25;5081140;28;20015;-58
2022/12/30 07:38:55;;;;;;;;;;;;;;;8.67;68.06;100017.13;5086724;28;19924;-57
2022/12/30 07:41:21;;;;;;;;;;;;;;;8.91;67.20;100017.53;5089766;28;19920;-56
2022/12/30 07:43:46;;;;;;;;;;;;;;;8.78;67.51;100030.03;5097532;28;19946;-56
2022/12/30 07:46:11;;;;;;;;;;;;;;;8.78;67.65;100035.25;5079417;28;19928;-56
2022/12/30 07:48:37;;;;;;;;;;;;;;;8.94;67.17;100047.16;5077080;28;19929;-56
2022/12/30 07:51:07;;;;;;;;;;;;;;;8.75;67.82;100044.03;5077397;28;20276;-56
2022/12/30 07:53:33;;;;;;;;;;;;;;;8.83;67.39;100052.59;5087693;28;19920;-57
2022/12/30 07:55:58;;;;;;;;;;;;;;;8.80;67.72;100057.88;5081810;28;19920;-56
2022/12/30 07:58:24;;;;;;;;;;;;;;;8.75;67.84;100067.59;5074861;28;19985;-56
2022/12/30 08:00:49;;;;;;;;;;;;;;;8.87;67.32;100069.13;5078451;28;20334;-55
2022/12/30 08:03:14;;;;;;;;;;;;;;;8.91;67.47;100073.41;5088066;28;19932;-56
2022/12/30 08:05:39;;;;;;;;;;;;;;;8.92;67.26;100074.28;5088979;28;19971;-56
2022/12/30 08:08:06;;;;;;;;;;;;;;;8.81;67.52;100075.31;5083741;28;19920;-54
2022/12/30 08:10:31;;;;;;;;;;;;;;;8.76;67.41;100082.41;5081109;28;20018;-57
2022/12/30 08:12:57;;;;;;;;;;;;;;;8.78;67.57;100075.41;5076151;28;19920;-54
2022/12/30 08:15:22;;;;;;;;;;;;;;;8.72;67.79;100072.03;5079617;28;19931;-55
2022/12/30 08:17:47;;;;;;;;;;;;;;;8.67;67.42;100081.75;5075812;28;20285;-56
2022/12/30 08:20:13;;;;;;;;;;;;;;;8.58;67.71;100085.41;5075628;28;19928;-54
2022/12/30 08:22:41;;;;;;;;;;;;;;;8.74;67.07;100072.88;5075778;28;19974;-55
2022/12/30 08:25:06;;;;;;;;;;;;;;;8.75;66.96;100082.47;5086622;28;19931;-55
2022/12/30 08:27:32;;;;;;;;;;;;;;;8.89;66.72;100077.81;5090734;28;19924;-57
2022/12/30 08:29:57;;;;;;;;;;;;;;;8.85;66.87;100069.13;5089002;28;19969;-55
2022/12/30 08:32:23;;;;;;;;;;;;;;;8.87;66.68;100082.22;5087955;28;20394;-56
2022/12/30 08:34:48;;;;;;;;;;;;;;;9.05;66.10;100084.47;5088420;28;19920;-56
2022/12/30 08:37:13;;;;;;;;;;;;;;;9.20;65.81;100085.06;5079558;28;19963;-57
2022/12/30 08:39:38;;;;;;;;;;;;;;;9.30;65.74;100087.47;5088706;28;19925;-56
2022/12/30 08:42:04;;;;;;;;;;;;;;;9.09;66.37;100082.66;5086647;28;19966;-56
2022/12/30 08:44:29;;;;;;;;;;;;;;;9.26;65.93;100091.03;5082077;28;19926;-56
2022/12/30 08:46:55;;;;;;;;;;;;;;;9.41;65.61;100099.47;5081748;28;19978;-56
2022/12/30 08:49:20;;;;;;;;;;;;;;;9.18;66.40;100098.22;5076063;28;20396;-57
2022/12/30 08:51:45;;;;;;;;;;;;;;;9.38;66.04;100087.31;5084093;28;19924;-57
2022/12/30 08:54:11;;;;;;;;;;;;;;;9.23;66.19;100098.97;5091525;28;19924;-56
2022/12/30 08:56:37;;;;;;;;;;;;;;;9.34;66.25;100104.00;5094472;28;20031;-57
2022/12/30 08:59:02;;;;;;;;;;;;;;;9.42;65.89;100099.44;5089509;28;19958;-56
2022/12/30 09:01:29;;;;;;;;;;;;;;;9.54;65.77;100091.31;5081767;28;19939;-57
2022/12/30 09:03:55;;;;;;;;;;;;;;;9.46;65.89;100113.38;5092988;28;19927;-57
2022/12/30 09:06:22;;;;;;;;;;;;;;;9.32;65.89;100111.03;5094134;28;19928;-57
2022/12/30 09:08:48;;;;;;;;;;;;;;;9.54;65.76;100116.69;5092551;28;19965;-56
2022/12/30 09:11:15;;;;;;;;;;;;;;;9.65;65.51;100140.03;5081857;28;20368;-57
2022/12/30 09:13:41;;;;;;;;;;;;;;;9.59;65.67;100125.31;5077422;28;19920;-57
2022/12/30 09:16:08;;;;;;;;;;;;;;;9.53;65.91;100121.03;5077293;28;20372;-54
2022/12/30 09:18:34;;;;;;;;;;;;;;;9.59;65.46;100120.94;5077257;28;20015;-55
2022/12/30 09:21:00;;;;;;;;;;;;;;;9.85;64.90;100115.13;5083136;28;20015;-57
2022/12/30 09:23:25;;;;;;;;;;;;;;;9.75;65.02;100115.34;5076302;28;19916;-55
2022/12/30 09:25:51;;;;;;;;;;;;;;;9.47;65.60;100109.84;5076897;28;19920;-57
2022/12/30 09:28:16;;;;;;;;;;;;;;;9.73;64.95;100125.00;5077078;28;19960;-56
2022/12/30 09:30:41;;;;;;;;;;;;;;;10.14;64.24;100131.09;5081177;28;20397;-57
2022/12/30 09:33:07;;;;;;;;;;;;;;;10.36;63.35;100140.19;5091448;28;19926;-57
2022/12/30 09:35:32;;;;;;;;;;;;;;;10.31;63.14;100147.31;5097485;28;19938;-57
2022/12/30 09:37:58;;;;;;;;;;;;;;;10.40;63.30;100146.22;5115761;28;19923;-57
2022/12/30 09:40:30;;;;;;;;;;;;;;;10.70;62.36;100149.84;5105772;28;19977;-57
2022/12/30 09:45:41;;;;;;;;;;;;;;;9.95;63.87;100144.63;5090223;28;19931;-57
2022/12/30 09:48:11;;;;;;;;;;;;;;;10.03;63.68;100136.56;5087396;28;19920;-56
2022/12/30 09:50:37;;;;;;;;;;;;;;;10.04;64.12;100144.41;5095833;28;19920;-56
2022/12/30 09:53:08;;;;;;;;;;;;;;;10.20;63.68;100144.91;5095080;28;20344;-57
2022/12/30 09:55:40;;;;;;;;;;;;;;;10.33;63.20;100154.28;5083163;28;19925;-58
2022/12/30 09:58:19;;;;;;;;;;;;;;;10.19;63.09;100152.84;5076686;28;19920;-57
2022/12/30 10:00:46;;;;;;;;;;;;;;;10.33;62.87;100150.75;5087135;28;19916;-56
2022/12/30 10:03:21;;;;;;;;;;;;;;;10.38;62.71;100148.03;5095843;28;19919;-56
2022/12/30 10:05:56;;;;;;;;;;;;;;;10.40;62.37;100141.81;5096594;28;19930;-57
2022/12/30 10:08:44;;;;;;;;;;;;;;;10.23;63.08;100144.84;5096646;28;19916;-57
2022/12/30 10:11:29;;;;;;;;;;;;;;;10.16;63.36;100145.03;5096522;28;19940;-56
2022/12/30 10:14:18;;;;;;;;;;;;;;;10.34;62.92;100144.63;5094034;28;19927;-57
2022/12/30 10:16:43;;;;;;;;;;;;;;;10.26;62.94;100149.19;5095451;28;20347;-57
2022/12/30 10:19:28;;;;;;;;;;;;;;;10.08;63.36;100142.56;5096040;28;19916;-54
2022/12/30 10:22:00;;;;;;;;;;;;;;;10.35;62.36;100143.72;5096497;28;19916;-55
2022/12/30 10:24:45;;;;;;;;;;;;;;;10.45;62.13;100149.59;5095008;28;19916;-58
2022/12/30 10:27:21;;;;;;;;;;;;;;;10.19;62.64;100158.94;5075054;28;19969;-55
2022/12/30 10:29:47;;;;;;;;;;;;;;;10.40;62.12;100148.84;5095165;28;20023;-57
2022/12/30 10:32:15;;;;;;;;;;;;;;;10.21;62.70;100141.38;5096332;28;20387;-56
2022/12/30 10:34:40;;;;;;;;;;;;;;;10.37;62.10;100149.78;5094880;28;19916;-56
2022/12/30 10:37:26;;;;;;;;;;;;;;;10.20;62.59;100151.91;5092109;28;19920;-57
2022/12/30 10:39:52;;;;;;;;;;;;;;;10.39;62.17;100145.38;5090337;28;20337;-58
2022/12/30 10:42:21;;;;;;;;;;;;;;;10.43;62.12;100138.28;5078330;28;20287;-58
2022/12/30 10:44:46;;;;;;;;;;;;;;;10.34;62.24;100150.72;5077774;28;19921;-58
2022/12/30 10:47:26;;;;;;;;;;;;;;;10.21;61.59;100146.63;5087272;28;20348;-58
2022/12/30 10:49:52;;;;;;;;;;;;;;;9.98;62.11;100154.19;5092186;28;19966;-58
2022/12/30 10:52:18;;;;;;;;;;;;;;;10.05;62.13;100153.13;5095461;28;19917;-56
2022/12/30 10:54:44;;;;;;;;;;;;;;;10.23;61.42;100165.00;5088239;28;19988;-58
2022/12/30 10:57:17;;;;;;;;;;;;;;;10.45;61.10;100157.47;5107112;28;20366;-58
2022/12/30 10:59:42;;;;;;;;;;;;;;;10.42;60.90;100158.44;5115716;28;19920;-57
2022/12/30 11:02:15;;;;;;;;;;;;;;;10.57;60.63;100150.16;5114037;28;19922;-58
2022/12/30 11:04:42;;;;;;;;;;;;;;;10.28;60.64;100168.38;5115603;28;20002;-59
2022/12/30 11:07:09;;;;;;;;;;;;;;;10.59;60.62;100166.75;5115653;28;19926;-59
2022/12/30 11:09:34;;;;;;;;;;;;;;;10.46;60.29;100161.84;5115632;28;19923;-57
2022/12/30 11:15:01;;;;;;;;;;;;;;;10.47;60.11;100174.94;5076520;28;19928;-58
2022/12/30 11:17:26;;;;;;;;;;;;;;;10.56;59.44;100174.69;5075287;28;19924;-55
2022/12/30 11:19:53;;;;;;;;;;;;;;;10.56;59.64;100182.56;5074956;28;19920;-57
2022/12/30 11:22:19;;;;;;;;;;;;;;;10.45;59.96;100179.38;5074483;28;19916;-56
2022/12/30 11:24:54;;;;;;;;;;;;;;;10.58;59.51;100178.16;5074094;28;20367;-57
2022/12/30 11:27:46;;;;;;;;;;;;;;;10.79;58.67;100189.88;5074671;28;20372;-56
2022/12/30 11:30:26;;;;;;;;;;;;;;;10.81;58.41;100179.31;5073600;28;20379;-57
2022/12/30 11:32:53;;;;;;;;;;;;;;;10.95;58.25;100192.97;5074250;28;20007;-57
2022/12/30 11:35:33;;;;;;;;;;;;;;;10.86;58.66;100193.22;5072924;28;19917;-57
2022/12/30 11:37:58;;;;;;;;;;;;;;;10.93;58.28;100197.44;5073668;28;19917;-58
2022/12/30 11:40:26;;;;;;;;;;;;;;;10.98;57.96;100199.94;5073175;28;20413;-58
2022/12/30 11:43:23;;;;;;;;;;;;;;;10.88;58.00;100209.81;5072947;28;20533;-58
2022/12/30 11:46:06;;;;;;;;;;;;;;;10.93;57.59;100205.31;5053615;28;19927;-56
2022/12/30 11:48:37;;;;;;;;;;;;;;;10.69;58.35;100205.91;5091084;28;19917;-58
2022/12/30 11:51:04;;;;;;;;;;;;;;;10.66;58.25;100206.88;5091760;28;19920;-57
2022/12/30 11:53:33;;;;;;;;;;;;;;;10.70;58.14;100213.78;5094551;28;19957;-56
2022/12/30 11:55:59;;;;;;;;;;;;;;;10.88;57.99;100207.19;5094356;28;19924;-57
2022/12/30 11:58:26;;;;;;;;;;;;;;;10.97;57.87;100212.22;5092361;28;20139;-56
2022/12/30 12:01:02;;;;;;;;;;;;;;;11.01;57.52;100212.97;5094540;28;19924;-55
2022/12/30 12:03:28;;;;;;;;;;;;;;;11.07;57.05;100218.94;5094552;28;19923;-57
2022/12/30 12:06:05;;;;;;;;;;;;;;;11.17;56.55;100221.34;5094269;28;19922;-55
2022/12/30 12:08:33;;;;;;;;;;;;;;;11.08;56.91;100225.94;5094847;28;19923;-54
2022/12/30 12:11:00;;;;;;;;;;;;;;;10.85;56.78;100239.69;5094460;28;19969;-56
2022/12/30 12:13:32;;;;;;;;;;;;;;;10.94;56.93;100237.72;5094339;28;20296;-56
2022/12/30 12:15:58;;;;;;;;;;;;;;;11.01;56.76;100237.53;5094338;28;20334;-57
2022/12/30 12:18:42;;;;;;;;;;;;;;;10.97;56.50;100238.53;5094268;28;19916;-57
2022/12/30 12:21:27;;;;;;;;;;;;;;;10.87;56.46;100247.53;5094166;28;19962;-55
2022/12/30 12:23:58;;;;;;;;;;;;;;;10.91;56.44;100245.69;5092865;28;19999;-57
2022/12/30 12:26:23;;;;;;;;;;;;;;;10.79;56.43;100254.72;5094094;28;19916;-56
2022/12/30 12:28:51;;;;;;;;;;;;;;;10.64;56.39;100257.72;5094142;28;19916;-54
2022/12/30 12:31:16;;;;;;;;;;;;;;;10.62;56.49;100255.16;5093930;28;19916;-57
2022/12/30 12:33:47;;;;;;;;;;;;;;;10.71;55.95;100254.91;5093790;28;19973;-56
2022/12/30 12:36:19;;;;;;;;;;;;;;;10.75;56.36;100259.19;5091608;28;19922;-56
2022/12/30 12:38:52;;;;;;;;;;;;;;;11.04;55.68;100271.59;5093858;28;19916;-54
2022/12/30 12:41:20;;;;;;;;;;;;;;;11.20;55.14;100276.47;5094076;28;19977;-56
2022/12/30 12:43:53;;;;;;;;;;;;;;;11.35;54.97;100289.25;5093811;28;19961;-57
2022/12/30 12:46:24;;;;;;;;;;;;;;;11.31;54.60;100282.34;5093918;28;20015;-57
2022/12/30 12:49:07;;;;;;;;;;;;;;;11.53;54.33;100287.88;5093937;28;19917;-57
2022/12/30 12:51:54;;;;;;;;;;;;;;;11.15;54.34;100291.53;5093866;28;20015;-57
2022/12/30 12:54:38;;;;;;;;;;;;;;;11.41;54.50;100289.09;5094235;28;19916;-56
2022/12/30 12:57:16;;;;;;;;;;;;;;;10.82;53.79;100288.84;5094076;28;19924;-58
2022/12/30 13:00:00;;;;;;;;;;;;;;;11.10;53.70;100296.91;5093876;28;19969;-56
2022/12/30 13:02:43;;;;;;;;;;;;;;;11.19;53.23;100298.44;5093775;28;19924;-55
2022/12/30 13:05:27;;;;;;;;;;;;;;;10.67;54.03;100294.44;5093595;28;19939;-57
2022/12/30 13:07:58;;;;;;;;;;;;;;;10.82;54.26;100300.22;5093663;28;19920;-57
2022/12/30 13:10:24;;;;;;;;;;;;;;;11.08;54.03;100298.69;5093728;28;19916;-57
2022/12/30 13:12:53;;;;;;;;;;;;;;;10.73;53.57;100315.31;5093586;28;20334;-56
2022/12/30 13:15:21;;;;;;;;;;;;;;;10.97;54.04;100308.59;5092947;28;19923;-55
2022/12/30 13:17:49;;;;;;;;;;;;;;;10.89;54.44;100308.81;5073297;28;19920;-56
2022/12/30 13:20:16;;;;;;;;;;;;;;;10.93;54.68;100315.72;5073098;28;20310;-55
2022/12/30 13:22:43;;;;;;;;;;;;;;;10.85;54.75;100312.38;5073293;28;19926;-56
2022/12/30 13:25:14;;;;;;;;;;;;;;;10.92;54.44;100313.97;5077370;28;19920;-57
2022/12/30 13:27:41;;;;;;;;;;;;;;;10.99;54.51;100315.56;5090476;28;19920;-58
2022/12/30 13:30:11;;;;;;;;;;;;;;;10.82;53.95;100315.97;5113683;28;19998;-57
2022/12/30 13:32:49;;;;;;;;;;;;;;;10.69;54.69;100313.66;5075230;28;20015;-57
2022/12/30 13:35:22;;;;;;;;;;;;;;;10.50;55.20;100327.22;5072756;28;19927;-56
2022/12/30 13:37:55;;;;;;;;;;;;;;;10.41;54.96;100339.69;5090245;28;19916;-56
2022/12/30 13:40:23;;;;;;;;;;;;;;;10.46;55.01;100337.84;5101490;28;20350;-56
2022/12/30 13:42:52;;;;;;;;;;;;;;;10.69;54.79;100342.56;5100641;28;20264;-57
2022/12/30 13:45:20;;;;;;;;;;;;;;;10.75;54.48;100327.53;5097200;28;19921;-55